Terminal Aerodrome Forecast
Issued by NWS Jackson, MS

Home | Current Version | Previous Version | Text Only | Print | Product List | Glossary On
Versions: 1 2 3 4 5 6 7 8 9 10 11 12 13
000
FTUS44 KJAN 292342
TAFGWO
TAF
KGWO 292342Z 3000/3024 VRB04KT P6SM FEW050 SCT200
     FM301000 VRB03KT 6SM BR HZ FEW250
     FM301400 01008KT P6SM FEW040 SCT060=

USA.gov is the U.S. government's official web portal to all federal, state and local government web resources and services.